createdAt,value
2019-03-24T00:02:21.276Z,11.30
2019-03-24T00:04:51.382Z,11.30
2019-03-24T00:07:23.667Z,11.10
2019-03-24T00:09:53.853Z,11.10
2019-03-24T00:12:23.773Z,11.10
2019-03-24T00:14:53.687Z,11.10
2019-03-24T00:17:23.993Z,11.10
2019-03-24T00:19:54.201Z,11.10
2019-03-24T00:22:24.410Z,11.00
2019-03-24T00:24:54.324Z,11.00
2019-03-24T00:27:24.263Z,11.00
2019-03-24T00:29:58.465Z,11.00
2019-03-24T00:32:28.391Z,10.90
2019-03-24T00:34:58.301Z,10.80
2019-03-24T00:37:28.413Z,10.80
2019-03-24T00:39:58.522Z,10.70
2019-03-24T00:42:28.684Z,10.60
2019-03-24T00:44:58.647Z,10.40
2019-03-24T00:47:28.655Z,10.40
2019-03-24T00:49:58.570Z,10.30
2019-03-24T00:52:28.828Z,10.30
2019-03-24T00:54:58.789Z,10.20
2019-03-24T00:57:28.900Z,10.30
2019-03-24T00:59:58.910Z,10.50
2019-03-24T01:02:29.022Z,10.70
2019-03-24T01:04:59.426Z,10.50
2019-03-24T01:07:29.436Z,10.40
2019-03-24T01:09:59.645Z,10.50
2019-03-24T01:12:29.559Z,10.70
2019-03-24T01:14:59.472Z,10.60
2019-03-24T01:17:29.386Z,10.50
2019-03-24T01:19:59.398Z,10.50
2019-03-24T01:22:29.605Z,10.50
2019-03-24T01:24:59.912Z,10.50
2019-03-24T01:27:29.825Z,10.50
2019-03-24T01:29:59.739Z,10.50
2019-03-24T01:32:29.652Z,10.50
2019-03-24T01:34:59.764Z,10.50
2019-03-24T01:37:29.712Z,10.40
2019-03-24T01:39:59.786Z,10.40
2019-03-24T01:42:29.699Z,10.10
2019-03-24T01:44:59.612Z,10.20
2019-03-24T01:47:29.530Z,10.10
2019-03-24T01:49:59.832Z,10.10
2019-03-24T01:52:29.744Z,9.80
2019-03-24T01:54:59.758Z,9.80
2019-03-24T01:57:29.768Z,10.00
2019-03-24T01:59:59.681Z,10.00
2019-03-24T02:02:29.595Z,10.00
2019-03-24T02:04:59.510Z,10.10
2019-03-24T02:07:29.423Z,10.10
2019-03-24T02:09:59.339Z,10.10
2019-03-24T02:12:29.253Z,10.10
2019-03-24T02:14:59.163Z,10.00
2019-03-24T02:17:29.075Z,10.10
2019-03-24T02:19:58.869Z,9.90
2019-03-24T02:22:28.900Z,9.80
2019-03-24T02:24:58.814Z,9.70
2019-03-24T02:27:28.727Z,9.70
2019-03-24T02:29:58.642Z,9.70
2019-03-24T02:32:28.758Z,9.90
2019-03-24T02:34:58.674Z,9.90
2019-03-24T02:37:28.579Z,9.70
2019-03-24T02:39:58.486Z,9.60
2019-03-24T02:42:28.405Z,9.50
2019-03-24T02:44:58.319Z,9.60
2019-03-24T02:47:28.627Z,9.50
2019-03-24T02:49:58.639Z,9.40
2019-03-24T02:52:28.548Z,9.20
2019-03-24T02:54:58.664Z,9.10
2019-03-24T02:57:28.578Z,9.10
2019-03-24T02:59:58.980Z,9.10
2019-03-24T03:02:28.894Z,9.00
2019-03-24T03:04:58.808Z,9.10
2019-03-24T03:07:28.817Z,9.10
2019-03-24T03:09:58.738Z,9.30
2019-03-24T03:12:28.644Z,9.30
2019-03-24T03:14:58.830Z,9.30
2019-03-24T03:17:28.795Z,9.20
2019-03-24T03:19:58.779Z,9.20
2019-03-24T03:22:28.801Z,9.20
2019-03-24T03:24:58.705Z,9.10
2019-03-24T03:27:29.020Z,8.90
2019-03-24T03:29:59.120Z,8.80
2019-03-24T03:32:29.074Z,8.80
2019-03-24T03:34:59.055Z,8.70
2019-03-24T03:37:28.941Z,8.60
2019-03-24T03:39:58.872Z,8.50
2019-03-24T03:42:28.794Z,8.40
2019-03-24T03:44:58.702Z,8.20
2019-03-24T03:47:28.618Z,8.20
2019-03-24T03:49:58.535Z,8.20
2019-03-24T03:52:28.440Z,8.40
2019-03-24T03:54:58.363Z,8.50
2019-03-24T03:57:28.369Z,8.60
2019-03-24T03:59:58.375Z,8.60
2019-03-24T04:02:28.303Z,8.60
2019-03-24T04:04:58.793Z,8.60
2019-03-24T04:07:28.902Z,8.60
2019-03-24T04:09:59.110Z,8.70
2019-03-24T04:12:29.025Z,8.70
2019-03-24T04:14:58.993Z,8.80
2019-03-24T04:17:28.949Z,8.80
2019-03-24T04:19:58.964Z,8.60
2019-03-24T04:22:28.876Z,8.60
2019-03-24T04:24:58.793Z,8.60
2019-03-24T04:27:28.902Z,8.60
2019-03-24T04:29:58.820Z,8.60
2019-03-24T04:32:29.119Z,8.60
2019-03-24T04:34:59.052Z,8.60
2019-03-24T04:37:28.945Z,8.60
2019-03-24T04:39:58.860Z,8.60
2019-03-24T04:42:28.968Z,8.70
2019-03-24T04:44:58.882Z,8.80
2019-03-24T04:47:28.996Z,8.80
2019-03-24T04:49:59.298Z,8.70
2019-03-24T04:52:29.211Z,8.60
2019-03-24T04:54:59.138Z,8.60
2019-03-24T04:57:29.041Z,8.30
2019-03-24T04:59:58.951Z,8.50
2019-03-24T05:02:28.866Z,8.50
2019-03-24T05:04:58.980Z,8.30
2019-03-24T05:07:29.972Z,8.00
2019-03-24T05:10:00.969Z,8.00
2019-03-24T05:12:30.978Z,7.90
2019-03-24T05:15:00.891Z,7.80
2019-03-24T05:17:30.902Z,7.70
2019-03-24T05:20:00.840Z,7.60
2019-03-24T05:22:30.734Z,7.40
2019-03-24T05:25:00.646Z,7.60
2019-03-24T05:27:30.557Z,7.70
2019-03-24T05:30:00.471Z,7.60
2019-03-24T05:32:30.384Z,7.60
2019-03-24T05:35:00.605Z,7.70
2019-03-24T05:37:30.704Z,7.90
2019-03-24T05:40:00.619Z,7.90
2019-03-24T05:42:30.532Z,8.00
2019-03-24T05:45:00.548Z,7.80
2019-03-24T05:47:37.013Z,7.80
2019-03-24T05:50:02.338Z,7.70
2019-03-24T05:52:32.542Z,7.60
2019-03-24T05:55:02.456Z,7.40
2019-03-24T05:57:32.928Z,7.50
2019-03-24T06:00:03.272Z,7.60
2019-03-24T06:02:33.179Z,7.70
2019-03-24T06:05:03.099Z,7.80
2019-03-24T06:07:33.696Z,7.80
2019-03-24T06:10:04.495Z,7.70
2019-03-24T06:12:34.700Z,7.60
2019-03-24T06:15:06.679Z,7.60
2019-03-24T06:17:47.162Z,7.50
2019-03-24T06:20:09.317Z,7.50
2019-03-24T06:22:39.271Z,7.50
2019-03-24T06:25:09.581Z,7.50
2019-03-24T06:27:39.688Z,7.40
2019-03-24T06:30:10.882Z,7.50
2019-03-24T06:32:40.791Z,7.70
2019-03-24T06:35:10.808Z,7.60
2019-03-24T06:37:41.210Z,7.60
2019-03-24T06:40:11.608Z,7.80
2019-03-24T06:42:41.898Z,8.00
2019-03-24T06:45:12.307Z,8.00
2019-03-24T06:47:42.436Z,8.10
2019-03-24T06:50:13.377Z,8.00
2019-03-24T06:52:43.348Z,8.20
2019-03-24T06:55:13.562Z,8.30
2019-03-24T06:57:43.465Z,8.30
2019-03-24T07:00:14.165Z,8.50
2019-03-24T07:02:44.373Z,8.50
2019-03-24T07:05:14.974Z,8.60
2019-03-24T07:07:45.201Z,8.70
2019-03-24T07:10:15.201Z,8.70
2019-03-24T07:12:45.110Z,8.90
2019-03-24T07:15:15.514Z,8.90
2019-03-24T07:17:45.427Z,8.90
2019-03-24T07:20:16.227Z,8.80
2019-03-24T07:22:46.336Z,8.90
2019-03-24T07:25:16.310Z,9.00
2019-03-24T07:27:46.262Z,9.10
2019-03-24T07:30:16.475Z,9.20
2019-03-24T07:32:46.387Z,9.40
2019-03-24T07:35:18.285Z,9.50
2019-03-24T07:37:48.176Z,9.60
2019-03-24T07:40:18.488Z,9.60
2019-03-24T07:42:48.399Z,9.70
2019-03-24T07:45:18.410Z,9.90
2019-03-24T07:47:49.155Z,10.00
2019-03-24T07:50:19.414Z,9.90
2019-03-24T07:52:49.426Z,9.90
2019-03-24T07:55:19.941Z,10.00
2019-03-24T07:57:49.848Z,10.00
2019-03-24T08:00:32.441Z,10.20
2019-03-24T08:03:03.150Z,10.20
2019-03-24T08:05:33.053Z,10.20
2019-03-24T08:08:03.177Z,10.30
2019-03-24T08:10:33.470Z,10.40
2019-03-24T08:13:03.383Z,10.60
2019-03-24T08:15:35.370Z,10.70
2019-03-24T08:18:05.915Z,10.70
2019-03-24T08:20:36.663Z,10.70
2019-03-24T08:23:07.067Z,10.90
2019-03-24T08:25:37.081Z,11.00
2019-03-24T08:28:07.289Z,11.10
2019-03-24T08:30:38.049Z,11.10
2019-03-24T08:33:08.196Z,11.10
2019-03-24T08:35:38.213Z,11.20
2019-03-24T08:38:08.710Z,11.40
2019-03-24T08:40:38.624Z,11.40
2019-03-24T08:43:08.929Z,11.50
2019-03-24T08:45:38.845Z,11.70
2019-03-24T08:48:09.248Z,11.80
2019-03-24T08:50:39.161Z,11.90
2019-03-24T08:53:09.077Z,12.00
2019-03-24T08:55:38.993Z,12.20
2019-03-24T08:58:08.999Z,12.30
2019-03-24T09:00:39.014Z,12.30
2019-03-24T09:03:09.026Z,12.50
2019-03-24T09:05:38.937Z,12.70
2019-03-24T09:08:08.850Z,13.00
2019-03-24T09:10:38.764Z,13.10
2019-03-24T09:13:08.774Z,13.40
2019-03-24T09:15:38.704Z,14.50
2019-03-24T09:18:08.601Z,14.60
2019-03-24T09:20:41.893Z,14.90
2019-03-24T09:23:10.730Z,15.30
2019-03-24T09:25:41.094Z,15.30
2019-03-24T09:28:10.949Z,15.40
2019-03-24T09:30:41.613Z,15.60
2019-03-24T09:33:11.521Z,15.80
2019-03-24T09:35:41.632Z,16.00
2019-03-24T09:38:11.548Z,17.00
2019-03-24T09:40:41.657Z,16.30
2019-03-24T09:43:12.075Z,16.50
2019-03-24T09:45:42.323Z,16.70
2019-03-24T09:48:12.578Z,17.20
2019-03-24T09:50:42.426Z,17.20
2019-03-24T09:53:12.798Z,17.50
2019-03-24T09:55:43.977Z,18.80
2019-03-24T09:58:13.904Z,18.70
2019-03-24T10:00:43.828Z,18.70
2019-03-24T10:03:13.935Z,19.30
2019-03-24T10:05:44.001Z,18.50
2019-03-24T10:08:14.144Z,18.10
2019-03-24T10:10:44.059Z,18.00
2019-03-24T10:13:14.463Z,18.40
2019-03-24T10:15:44.601Z,20.00
2019-03-24T10:18:14.780Z,19.90
2019-03-24T10:20:44.793Z,19.90
2019-03-24T10:23:15.101Z,19.50
2019-03-24T10:25:45.441Z,18.90
2019-03-24T10:28:15.319Z,18.90
2019-03-24T10:30:45.625Z,19.10
2019-03-24T10:33:15.689Z,20.60
2019-03-24T10:35:45.649Z,20.50
2019-03-24T10:38:15.766Z,21.20
2019-03-24T10:40:45.680Z,21.90
2019-03-24T10:43:15.882Z,21.20
2019-03-24T10:45:46.090Z,21.90
2019-03-24T10:48:16.007Z,21.70
2019-03-24T10:50:45.917Z,21.10
2019-03-24T10:53:15.829Z,21.90
2019-03-24T10:55:47.193Z,22.20
2019-03-24T10:58:17.428Z,21.50
2019-03-24T11:00:47.736Z,22.20
2019-03-24T11:03:18.040Z,21.60
2019-03-24T11:05:48.283Z,22.60
2019-03-24T11:08:18.269Z,22.20
2019-03-24T11:10:48.468Z,22.80
2019-03-24T11:13:18.284Z,23.80
2019-03-24T11:15:48.413Z,23.70
2019-03-24T11:18:18.993Z,24.00
2019-03-24T11:20:49.006Z,23.50
2019-03-24T11:23:18.919Z,24.30
2019-03-24T11:25:49.505Z,22.80
2019-03-24T11:28:20.375Z,22.20
2019-03-24T11:30:50.430Z,22.30
2019-03-24T11:33:20.958Z,22.10
2019-03-24T11:35:50.945Z,22.40
2019-03-24T11:38:20.862Z,24.10
2019-03-24T11:40:50.881Z,24.20
2019-03-24T11:43:20.798Z,23.40
2019-03-24T11:45:50.891Z,22.80
2019-03-24T11:48:21.443Z,22.90
2019-03-24T11:50:51.416Z,24.30
2019-03-24T11:53:21.419Z,24.30
2019-03-24T11:55:51.725Z,24.90
2019-03-24T11:58:21.638Z,25.60
2019-03-24T12:00:52.148Z,23.80
2019-03-24T12:03:25.318Z,23.50
2019-03-24T12:05:56.097Z,23.90
2019-03-24T12:08:26.010Z,25.10
2019-03-24T12:10:56.033Z,25.70
2019-03-24T12:13:25.954Z,24.40
2019-03-24T12:15:55.951Z,23.60
2019-03-24T12:18:25.863Z,23.70
2019-03-24T12:20:56.367Z,23.50
2019-03-24T12:23:26.276Z,23.50
2019-03-24T12:25:56.195Z,23.40
2019-03-24T12:28:26.238Z,23.40
2019-03-24T12:30:56.633Z,24.40
2019-03-24T12:33:26.815Z,25.20
2019-03-24T12:35:57.319Z,25.50
2019-03-24T12:38:27.232Z,24.40
2019-03-24T12:40:57.145Z,24.40
2019-03-24T12:43:27.059Z,24.00
2019-03-24T12:45:57.268Z,23.90
2019-03-24T12:48:27.269Z,24.80
2019-03-24T12:50:57.292Z,25.20
2019-03-24T12:53:27.301Z,24.90
2019-03-24T12:55:57.509Z,24.50
2019-03-24T12:58:27.619Z,23.90
2019-03-24T13:00:57.536Z,24.00
2019-03-24T13:03:27.446Z,24.10
2019-03-24T13:05:57.655Z,24.00
2019-03-24T13:08:27.569Z,23.80
2019-03-24T13:10:57.776Z,23.70
2019-03-24T13:13:27.690Z,23.70
2019-03-24T13:15:57.618Z,23.70
2019-03-24T13:18:27.723Z,24.00
2019-03-24T13:20:57.626Z,24.70
2019-03-24T13:23:27.546Z,25.50
2019-03-24T13:25:57.752Z,25.70
2019-03-24T13:28:27.666Z,26.10
2019-03-24T13:30:57.872Z,26.20
2019-03-24T13:33:27.783Z,24.80
2019-03-24T13:36:02.418Z,24.60
2019-03-24T13:38:32.330Z,25.20
2019-03-24T13:41:02.953Z,25.40
2019-03-24T13:43:32.942Z,25.30
2019-03-24T13:46:02.861Z,24.60
2019-03-24T13:48:32.772Z,24.50
2019-03-24T13:51:02.881Z,24.20
2019-03-24T13:53:32.791Z,24.70
2019-03-24T13:56:02.903Z,24.90
2019-03-24T13:58:33.109Z,24.60
2019-03-24T14:01:03.419Z,24.30
2019-03-24T14:03:33.921Z,24.40
2019-03-24T14:06:03.932Z,24.50
2019-03-24T14:08:33.848Z,24.50
2019-03-24T14:11:03.765Z,24.90
2019-03-24T14:13:33.671Z,24.80
2019-03-24T14:16:03.688Z,24.40
2019-03-24T14:18:33.596Z,24.60
2019-03-24T14:21:03.509Z,24.50
2019-03-24T14:23:33.423Z,24.30
2019-03-24T14:26:03.631Z,24.00
2019-03-24T14:28:33.545Z,24.40
2019-03-24T14:31:03.753Z,24.40
2019-03-24T14:33:33.669Z,24.50
2019-03-24T14:36:03.776Z,24.40
2019-03-24T14:38:33.690Z,24.40
2019-03-24T14:41:03.996Z,24.10
2019-03-24T14:43:34.205Z,24.10
2019-03-24T14:46:04.609Z,24.00
2019-03-24T14:48:36.287Z,23.70
2019-03-24T14:51:06.208Z,23.80
2019-03-24T14:53:36.120Z,24.10
2019-03-24T14:56:06.525Z,24.20
2019-03-24T14:58:36.536Z,23.70
2019-03-24T15:01:06.547Z,23.50
2019-03-24T15:03:36.761Z,23.70
2019-03-24T15:06:06.985Z,23.50
2019-03-24T15:08:36.974Z,23.70
2019-03-24T15:11:06.890Z,23.40
2019-03-24T15:13:36.802Z,23.30
2019-03-24T15:16:06.715Z,23.70
2019-03-24T15:18:36.629Z,23.80
2019-03-24T15:21:06.542Z,23.50
2019-03-24T15:23:36.458Z,23.10
2019-03-24T15:26:06.467Z,23.50
2019-03-24T15:28:36.871Z,23.80
2019-03-24T15:31:06.884Z,23.90
2019-03-24T15:33:36.798Z,23.80
2019-03-24T15:36:06.710Z,23.30
2019-03-24T15:38:36.723Z,23.20
2019-03-24T15:41:06.635Z,23.50
2019-03-24T15:43:36.563Z,23.50
2019-03-24T15:46:06.565Z,23.20
2019-03-24T15:48:36.474Z,23.30
2019-03-24T15:51:16.430Z,23.50
2019-03-24T15:53:38.713Z,23.40
2019-03-24T15:56:08.868Z,23.40
2019-03-24T15:58:38.782Z,23.30
2019-03-24T16:01:08.696Z,23.20
2019-03-24T16:03:39.793Z,23.20
2019-03-24T16:06:09.799Z,23.20
2019-03-24T16:08:39.714Z,23.10
2019-03-24T16:11:09.824Z,23.00
2019-03-24T16:13:39.738Z,22.90
2019-03-24T16:16:10.247Z,23.10
2019-03-24T16:18:40.154Z,23.00
2019-03-24T16:21:10.070Z,23.10
2019-03-24T16:23:39.980Z,23.00
2019-03-24T16:26:09.946Z,22.80
2019-03-24T16:28:40.106Z,22.90
2019-03-24T16:31:10.017Z,22.70
2019-03-24T16:33:39.929Z,22.70
2019-03-24T16:36:10.045Z,22.50
2019-03-24T16:38:48.502Z,22.50
2019-03-24T16:41:11.636Z,22.50
2019-03-24T16:43:41.548Z,22.30
2019-03-24T16:46:11.461Z,22.20
2019-03-24T16:48:41.573Z,22.20
2019-03-24T16:51:11.486Z,22.10
2019-03-24T16:53:41.696Z,22.20
2019-03-24T16:56:11.608Z,22.00
2019-03-24T16:58:41.513Z,21.90
2019-03-24T17:01:11.631Z,21.90
2019-03-24T17:03:41.643Z,21.80
2019-03-24T17:06:11.947Z,21.70
2019-03-24T17:08:41.861Z,21.60
2019-03-24T17:11:12.074Z,21.50
2019-03-24T17:13:42.081Z,21.40
2019-03-24T17:16:12.094Z,21.60
2019-03-24T17:18:42.008Z,21.40
2019-03-24T17:21:11.919Z,21.40
2019-03-24T17:23:41.836Z,21.30
2019-03-24T17:26:11.747Z,21.30
2019-03-24T17:28:41.600Z,21.10
2019-03-24T17:31:11.571Z,21.00
2019-03-24T17:33:41.486Z,20.90
2019-03-24T17:36:11.794Z,20.80
2019-03-24T17:38:41.706Z,20.80
2019-03-24T17:41:11.915Z,20.70
2019-03-24T17:43:41.881Z,20.60
2019-03-24T17:46:11.839Z,20.50
2019-03-24T17:48:41.752Z,20.40
2019-03-24T17:51:12.261Z,20.40
2019-03-24T17:53:42.181Z,20.20
2019-03-24T17:56:12.089Z,20.10
2019-03-24T17:58:42.193Z,20.10
2019-03-24T18:01:12.315Z,19.90
2019-03-24T18:03:42.112Z,19.90
2019-03-24T18:06:15.080Z,19.80
2019-03-24T18:08:45.096Z,19.70
2019-03-24T18:11:15.103Z,19.60
2019-03-24T18:13:45.212Z,19.40
2019-03-24T18:16:15.012Z,19.40
2019-03-24T18:18:45.273Z,19.40
2019-03-24T18:21:16.622Z,19.30
2019-03-24T18:23:46.640Z,19.10
2019-03-24T18:26:16.547Z,19.00
2019-03-24T18:28:46.659Z,19.00
2019-03-24T18:31:16.673Z,18.80
2019-03-24T18:33:46.785Z,18.80
2019-03-24T18:36:16.581Z,18.60
2019-03-24T18:38:46.513Z,18.50
2019-03-24T18:41:16.817Z,18.40
2019-03-24T18:43:46.990Z,18.40
2019-03-24T18:46:17.431Z,18.30
2019-03-24T18:48:47.342Z,18.20
2019-03-24T18:51:17.471Z,18.20
2019-03-24T18:53:47.418Z,18.00
2019-03-24T18:56:17.680Z,18.00
2019-03-24T18:58:47.582Z,17.90
2019-03-24T19:01:17.871Z,17.80
2019-03-24T19:03:47.908Z,17.70
2019-03-24T19:06:17.915Z,17.60
2019-03-24T19:08:47.936Z,17.60
2019-03-24T19:11:17.937Z,17.40
2019-03-24T19:13:48.069Z,17.40
2019-03-24T19:16:18.109Z,17.40
2019-03-24T19:18:48.268Z,17.30
2019-03-24T19:21:18.474Z,17.10
2019-03-24T19:23:48.488Z,17.10
2019-03-24T19:26:18.372Z,17.00
2019-03-24T19:28:48.312Z,16.90
2019-03-24T19:31:18.621Z,16.80
2019-03-24T19:33:48.633Z,16.70
2019-03-24T19:36:18.671Z,16.70
2019-03-24T19:38:49.441Z,16.60
2019-03-24T19:41:19.746Z,16.50
2019-03-24T19:43:50.158Z,16.50
2019-03-24T19:46:20.096Z,16.50
2019-03-24T19:48:50.137Z,16.40
2019-03-24T19:51:20.046Z,16.20
2019-03-24T19:53:50.198Z,16.20
2019-03-24T19:56:20.335Z,16.10
2019-03-24T19:58:50.819Z,16.10
2019-03-24T20:01:21.127Z,16.00
2019-03-24T20:03:50.932Z,15.90
2019-03-24T20:06:20.867Z,15.80
2019-03-24T20:08:51.470Z,15.80
2019-03-24T20:11:21.662Z,15.70
2019-03-24T20:13:51.523Z,15.70
2019-03-24T20:16:21.334Z,15.60
2019-03-24T20:18:51.413Z,15.50
2019-03-24T20:21:21.315Z,15.50
2019-03-24T20:23:51.420Z,15.40
2019-03-24T20:26:21.331Z,15.30
2019-03-24T20:28:51.246Z,15.30
2019-03-24T20:31:21.171Z,15.30
2019-03-24T20:33:51.173Z,15.40
2019-03-24T20:36:21.374Z,15.30
2019-03-24T20:38:51.330Z,15.30
2019-03-24T20:41:21.209Z,15.30
2019-03-24T20:43:51.537Z,15.20
2019-03-24T20:46:21.525Z,15.10
2019-03-24T20:48:51.480Z,15.10
2019-03-24T20:51:21.998Z,15.20
2019-03-24T20:53:51.959Z,15.10
2019-03-24T20:56:22.041Z,15.00
2019-03-24T20:58:52.468Z,14.90
2019-03-24T21:01:22.589Z,14.90
2019-03-24T21:03:52.934Z,14.90
2019-03-24T21:06:22.994Z,14.90
2019-03-24T21:08:52.905Z,15.00
2019-03-24T21:11:23.153Z,15.10
2019-03-24T21:13:53.335Z,15.10
2019-03-24T21:16:25.435Z,15.00
2019-03-24T21:18:55.413Z,14.90
2019-03-24T21:21:25.226Z,14.90
2019-03-24T21:23:55.141Z,14.80
2019-03-24T21:26:25.159Z,14.60
2019-03-24T21:28:55.062Z,14.50
2019-03-24T21:31:25.077Z,14.50
2019-03-24T21:33:55.786Z,14.50
2019-03-24T21:36:25.802Z,14.50
2019-03-24T21:38:57.426Z,14.50
2019-03-24T21:41:27.577Z,14.40
2019-03-24T21:43:58.387Z,14.20
2019-03-24T21:46:28.590Z,14.10
2019-03-24T21:48:58.602Z,13.90
2019-03-24T21:51:28.724Z,13.70
2019-03-24T21:53:59.310Z,13.40
2019-03-24T21:56:29.223Z,13.10
2019-03-24T21:58:59.182Z,13.10
2019-03-24T22:01:29.245Z,12.90
2019-03-24T22:03:59.220Z,12.80
2019-03-24T22:06:29.369Z,12.80
2019-03-24T22:08:59.279Z,12.90
2019-03-24T22:11:29.126Z,12.90
2019-03-24T22:13:59.525Z,12.80
2019-03-24T22:16:29.610Z,12.80
2019-03-24T22:18:59.758Z,12.90
2019-03-24T22:21:29.837Z,12.80
2019-03-24T22:23:59.897Z,12.80
2019-03-24T22:26:29.852Z,12.70
2019-03-24T22:29:00.063Z,12.80
2019-03-24T22:31:29.972Z,12.80
2019-03-24T22:33:59.997Z,12.70
2019-03-24T22:36:30.291Z,12.90
2019-03-24T22:39:00.204Z,13.00
2019-03-24T22:41:30.118Z,12.90
2019-03-24T22:44:01.506Z,12.80
2019-03-24T22:46:31.419Z,12.70
2019-03-24T22:49:02.352Z,12.50
2019-03-24T22:51:32.524Z,12.40
2019-03-24T22:54:03.492Z,12.30
2019-03-24T22:56:33.636Z,12.40
2019-03-24T22:59:04.131Z,12.50
2019-03-24T23:01:34.045Z,12.50
2019-03-24T23:04:04.154Z,12.20
2019-03-24T23:06:34.275Z,12.20
2019-03-24T23:09:06.337Z,12.30
2019-03-24T23:11:36.254Z,12.20
2019-03-24T23:14:06.724Z,12.20
2019-03-24T23:16:36.669Z,12.10
2019-03-24T23:19:07.076Z,11.90
2019-03-24T23:21:36.988Z,11.90
2019-03-24T23:24:15.309Z,11.90
2019-03-24T23:26:38.588Z,11.90
2019-03-24T23:29:08.496Z,11.90
2019-03-24T23:31:38.418Z,12.00
2019-03-24T23:34:08.423Z,11.80
2019-03-24T23:36:38.336Z,11.60
2019-03-24T23:39:09.804Z,11.40
2019-03-24T23:41:39.740Z,11.30
2019-03-24T23:44:09.664Z,11.30
2019-03-24T23:46:40.404Z,11.30
2019-03-24T23:49:10.658Z,11.10
2019-03-24T23:51:40.713Z,11.10
2019-03-24T23:54:10.678Z,11.60
2019-03-24T23:56:40.592Z,11.70
2019-03-24T23:59:10.504Z,11.30
